createdAt,value
2022-12-03T00:02:29.514Z,19.50
2022-12-03T00:05:32.474Z,25.08
2022-12-03T00:08:34.910Z,15.73
2022-12-03T00:11:37.649Z,23.27
2022-12-03T00:14:44.599Z,24.40
2022-12-03T00:17:55.132Z,23.92
2022-12-03T00:20:57.590Z,29.17
2022-12-03T00:24:00.851Z,22.08
2022-12-03T00:27:03.455Z,31.95
2022-12-03T00:30:07.211Z,25.23
2022-12-03T00:33:09.638Z,22.00
2022-12-03T00:36:12.577Z,16.17
2022-12-03T00:39:15.140Z,29.55
2022-12-03T00:42:17.943Z,17.92
2022-12-03T00:45:20.378Z,28.73
2022-12-03T00:48:23.161Z,27.08
2022-12-03T00:51:25.694Z,22.70
2022-12-03T00:54:31.794Z,25.83
2022-12-03T00:57:34.816Z,24.60
2022-12-03T01:00:37.964Z,30.30
2022-12-03T01:03:40.517Z,36.10
2022-12-03T01:06:43.357Z,24.58
2022-12-03T01:09:45.837Z,27.20
2022-12-03T01:12:48.635Z,30.77
2022-12-03T01:15:51.229Z,36.07
2022-12-03T01:18:54.224Z,25.75
2022-12-03T01:21:57.006Z,35.15
2022-12-03T01:24:59.876Z,31.35
2022-12-03T01:28:02.401Z,21.30
2022-12-03T01:31:23.969Z,37.77
2022-12-03T01:34:26.869Z,21.17
2022-12-03T01:37:29.656Z,24.23
2022-12-03T01:40:32.081Z,27.48
2022-12-03T01:43:35.079Z,35.78
2022-12-03T01:46:39.677Z,32.60
2022-12-03T01:49:47.250Z,27.67
2022-12-03T01:52:49.904Z,26.27
2022-12-03T01:55:52.743Z,16.12
2022-12-03T01:58:55.185Z,24.33
2022-12-03T02:01:57.948Z,40.50
2022-12-03T02:05:01.147Z,39.17
2022-12-03T02:08:27.173Z,35.70
2022-12-03T02:11:36.197Z,24.77
2022-12-03T02:14:39.027Z,28.98
2022-12-03T02:17:42.152Z,29.97
2022-12-03T02:21:15.654Z,32.65
2022-12-03T02:24:20.838Z,31.87
2022-12-03T02:27:23.822Z,34.60
2022-12-03T02:30:28.215Z,34.85
2022-12-03T02:33:32.396Z,36.47
2022-12-03T02:36:35.685Z,34.80
2022-12-03T02:39:40.791Z,34.70
2022-12-03T02:42:44.906Z,28.52
2022-12-03T02:45:50.566Z,32.45
2022-12-03T02:48:53.072Z,26.57
2022-12-03T02:51:55.917Z,19.37
2022-12-03T02:54:58.859Z,32.17
2022-12-03T02:58:03.940Z,19.67
2022-12-03T03:01:06.542Z,29.50
2022-12-03T03:04:09.346Z,32.40
2022-12-03T03:07:11.975Z,22.48
2022-12-03T03:10:17.149Z,29.87
2022-12-03T03:13:20.306Z,22.85
2022-12-03T03:16:23.084Z,26.23
2022-12-03T03:19:26.311Z,31.30
2022-12-03T03:22:47.397Z,25.45
2022-12-03T03:25:57.616Z,19.52
2022-12-03T03:29:02.123Z,24.52
2022-12-03T03:32:05.189Z,22.02
2022-12-03T03:35:09.293Z,19.57
2022-12-03T03:38:12.283Z,25.48
2022-12-03T03:41:15.961Z,11.98
2022-12-03T03:44:18.396Z,16.55
2022-12-03T03:47:21.213Z,17.95
2022-12-03T03:50:23.915Z,23.27
2022-12-03T03:53:26.987Z,21.58
2022-12-03T03:56:29.597Z,15.00
2022-12-03T03:59:32.616Z,26.10
2022-12-03T04:02:35.222Z,20.05
2022-12-03T04:05:37.943Z,25.73
2022-12-03T04:08:40.678Z,23.58
2022-12-03T04:12:02.067Z,29.05
2022-12-03T04:15:05.527Z,22.15
2022-12-03T04:18:26.686Z,16.15
2022-12-03T04:21:47.718Z,17.23
2022-12-03T04:24:50.650Z,11.77
2022-12-03T04:28:12.588Z,15.75
2022-12-03T04:31:34.589Z,16.05
2022-12-03T04:34:55.663Z,23.73
2022-12-03T04:37:58.538Z,17.47
2022-12-03T04:41:01.045Z,16.87
2022-12-03T04:44:22.363Z,23.83
2022-12-03T04:47:24.897Z,20.55
2022-12-03T04:50:27.679Z,21.40
2022-12-03T04:53:30.241Z,20.30
2022-12-03T04:56:33.049Z,14.25
2022-12-03T04:59:36.446Z,16.77
2022-12-03T05:02:39.497Z,16.58
2022-12-03T05:05:41.962Z,29.75
2022-12-03T05:08:44.674Z,21.17
2022-12-03T05:11:47.181Z,16.10
2022-12-03T05:14:49.957Z,23.58
2022-12-03T05:17:52.428Z,19.85
2022-12-03T05:20:55.173Z,25.27
2022-12-03T05:23:57.774Z,20.63
2022-12-03T05:27:00.659Z,23.98
2022-12-03T05:30:03.470Z,19.48
2022-12-03T05:33:06.480Z,27.80
2022-12-03T05:36:09.348Z,25.15
2022-12-03T05:39:13.741Z,27.23
2022-12-03T05:42:36.645Z,19.05
2022-12-03T05:45:40.990Z,33.75
2022-12-03T05:48:48.350Z,21.95
2022-12-03T05:51:56.687Z,27.85
2022-12-03T05:55:00.844Z,21.03
2022-12-03T05:58:04.899Z,20.90
2022-12-03T06:01:07.354Z,22.62
2022-12-03T06:04:10.196Z,25.10
2022-12-03T06:07:14.293Z,31.15
2022-12-03T06:10:22.164Z,30.97
2022-12-03T06:13:24.582Z,15.95
2022-12-03T06:16:27.434Z,39.38
2022-12-03T06:19:30.062Z,25.62
2022-12-03T06:22:32.912Z,17.90
2022-12-03T06:25:35.386Z,32.90
2022-12-03T06:28:38.474Z,35.42
2022-12-03T06:31:41.019Z,38.70
2022-12-03T06:34:43.805Z,39.65
2022-12-03T06:37:46.300Z,21.17
2022-12-03T06:40:49.195Z,21.40
2022-12-03T06:43:51.614Z,24.70
2022-12-03T06:46:54.530Z,29.80
2022-12-03T06:49:57.069Z,28.50
2022-12-03T06:52:59.794Z,33.60
2022-12-03T06:56:02.307Z,16.87
2022-12-03T06:59:05.758Z,40.28
2022-12-03T07:02:08.293Z,25.00
2022-12-03T07:05:11.296Z,32.88
2022-12-03T07:08:14.026Z,28.33
2022-12-03T07:11:32.076Z,36.67
2022-12-03T07:14:34.559Z,31.17
2022-12-03T07:17:37.675Z,27.75
2022-12-03T07:20:40.241Z,32.35
2022-12-03T07:23:43.562Z,28.58
2022-12-03T07:26:46.101Z,26.47
2022-12-03T07:29:48.923Z,36.33
2022-12-03T07:32:51.495Z,29.73
2022-12-03T07:35:54.264Z,22.73
2022-12-03T07:38:56.948Z,31.77
2022-12-03T07:42:00.475Z,31.30
2022-12-03T07:45:03.094Z,48.25
2022-12-03T07:48:06.113Z,33.75
2022-12-03T07:51:12.848Z,27.60
2022-12-03T07:54:17.870Z,44.17
2022-12-03T07:57:20.320Z,27.80
2022-12-03T08:03:26.786Z,35.42
2022-12-03T08:06:29.392Z,27.02
2022-12-03T08:09:32.227Z,31.75
2022-12-03T08:12:41.656Z,32.37
2022-12-03T08:15:44.757Z,30.60
2022-12-03T08:18:48.469Z,23.80
2022-12-03T08:21:56.500Z,23.27
2022-12-03T08:25:02.305Z,25.83
2022-12-03T08:28:14.076Z,36.73
2022-12-03T08:31:32.475Z,22.10
2022-12-03T08:34:44.031Z,26.40
2022-12-03T08:37:46.541Z,27.02
2022-12-03T08:40:51.335Z,27.05
2022-12-03T08:43:53.761Z,39.17
2022-12-03T08:47:09.410Z,30.15
2022-12-03T08:50:27.569Z,36.78
2022-12-03T08:53:36.168Z,27.33
2022-12-03T08:56:39.283Z,29.80
2022-12-03T08:59:45.489Z,30.53
2022-12-03T09:02:50.248Z,37.92
2022-12-03T09:05:52.996Z,25.48
2022-12-03T09:08:55.586Z,26.20
2022-12-03T09:11:58.421Z,20.25
2022-12-03T09:15:00.889Z,23.73
2022-12-03T09:18:03.780Z,31.73
2022-12-03T09:21:06.424Z,21.45
2022-12-03T09:24:09.301Z,36.92
2022-12-03T09:27:11.758Z,26.52
2022-12-03T09:30:14.876Z,42.43
2022-12-03T09:33:17.760Z,38.78
2022-12-03T09:36:20.564Z,23.40
2022-12-03T09:39:23.177Z,26.87
2022-12-03T09:42:26.376Z,24.83
2022-12-03T09:45:28.833Z,41.93
2022-12-03T09:48:31.713Z,49.78
2022-12-03T09:51:35.607Z,26.67
2022-12-03T09:54:42.795Z,51.40
2022-12-03T09:57:48.150Z,43.72
2022-12-03T10:00:52.324Z,41.77
2022-12-03T10:03:55.045Z,29.50
2022-12-03T10:06:58.061Z,39.47
2022-12-03T10:10:00.902Z,38.75
2022-12-03T10:13:05.846Z,31.87
2022-12-03T10:16:11.731Z,23.43
2022-12-03T10:19:27.168Z,40.22
2022-12-03T10:22:36.787Z,35.13
2022-12-03T10:25:59.650Z,18.65
2022-12-03T10:29:02.389Z,27.08
2022-12-03T10:32:07.615Z,31.70
2022-12-03T10:35:16.695Z,34.97
2022-12-03T10:38:22.472Z,24.02
2022-12-03T10:41:27.362Z,40.55
2022-12-03T10:44:30.721Z,33.63
2022-12-03T10:47:33.641Z,35.77
2022-12-03T10:50:36.437Z,31.95
2022-12-03T10:53:40.081Z,29.48
2022-12-03T10:56:42.719Z,28.17
2022-12-03T10:59:45.538Z,31.65
2022-12-03T11:02:56.096Z,27.00
2022-12-03T11:06:05.860Z,30.48
2022-12-03T11:09:16.773Z,26.67
2022-12-03T11:12:28.244Z,31.17
2022-12-03T11:15:44.951Z,38.53
2022-12-03T11:19:13.853Z,21.07
2022-12-03T11:22:23.724Z,37.03
2022-12-03T11:25:29.430Z,28.02
2022-12-03T11:28:33.852Z,26.30
2022-12-03T11:31:41.261Z,32.70
2022-12-03T11:34:44.244Z,38.20
2022-12-03T11:37:46.985Z,20.65
2022-12-03T11:41:11.139Z,35.15
2022-12-03T11:44:30.483Z,29.95
2022-12-03T11:48:00.786Z,27.33
2022-12-03T11:51:03.765Z,20.03
2022-12-03T11:54:06.365Z,32.90
2022-12-03T11:57:29.483Z,25.15
2022-12-03T12:00:32.347Z,30.60
2022-12-03T12:03:49.498Z,28.17
2022-12-03T12:06:53.573Z,20.20
2022-12-03T12:09:57.470Z,35.00
2022-12-03T12:13:00.179Z,28.45
2022-12-03T12:16:08.534Z,25.92
2022-12-03T12:19:36.151Z,29.45
2022-12-03T12:22:39.387Z,21.03
2022-12-03T12:25:42.141Z,33.35
2022-12-03T12:28:44.945Z,25.12
2022-12-03T12:31:53.772Z,18.12
2022-12-03T12:35:24.162Z,36.60
2022-12-03T12:38:28.336Z,26.50
2022-12-03T12:41:31.065Z,16.33
2022-12-03T12:44:33.671Z,27.15
2022-12-03T12:47:36.554Z,28.52
2022-12-03T12:50:40.579Z,24.52
2022-12-03T12:53:43.277Z,33.37
2022-12-03T12:56:49.831Z,30.08
2022-12-03T12:59:55.528Z,45.95
2022-12-03T13:03:00.610Z,37.13
2022-12-03T13:06:03.628Z,42.42
2022-12-03T13:09:13.434Z,42.00
2022-12-03T13:12:20.313Z,40.35
2022-12-03T13:15:49.515Z,41.58
2022-12-03T13:18:57.047Z,29.95
2022-12-03T13:22:11.565Z,36.63
2022-12-03T13:29:02.986Z,34.40
2022-12-03T13:32:31.232Z,20.48
2022-12-03T13:35:36.270Z,34.95
2022-12-03T13:38:39.724Z,37.65
2022-12-03T13:42:01.711Z,39.73
2022-12-03T13:45:16.362Z,26.58
2022-12-03T13:48:20.387Z,40.25
2022-12-03T13:51:24.048Z,37.58
2022-12-03T13:54:29.053Z,39.13
2022-12-03T13:57:31.745Z,35.20
2022-12-03T14:00:34.301Z,43.87
2022-12-03T14:03:37.091Z,36.83
2022-12-03T14:06:39.903Z,37.38
2022-12-03T14:09:42.687Z,39.25
2022-12-03T14:12:45.233Z,43.53
2022-12-03T14:15:47.952Z,44.13
2022-12-03T14:18:50.442Z,40.15
2022-12-03T14:21:53.280Z,40.88
2022-12-03T14:24:56.047Z,41.30
2022-12-03T14:28:00.824Z,39.27
2022-12-03T14:31:03.357Z,40.97
2022-12-03T14:34:06.085Z,27.90
2022-12-03T14:37:08.579Z,36.35
2022-12-03T14:40:15.309Z,37.95
2022-12-03T14:43:20.563Z,32.27
2022-12-03T14:46:23.413Z,37.20
2022-12-03T14:49:26.109Z,25.85
2022-12-03T14:52:28.934Z,33.78
2022-12-03T14:55:31.409Z,40.60
2022-12-03T14:58:34.348Z,34.57
2022-12-03T15:01:36.949Z,38.60
2022-12-03T15:04:41.315Z,37.80
2022-12-03T15:07:43.877Z,47.20
2022-12-03T15:10:46.673Z,46.05
2022-12-03T15:13:49.149Z,51.63
2022-12-03T15:16:51.969Z,33.30
2022-12-03T15:19:54.932Z,46.55
2022-12-03T15:22:58.100Z,41.03
2022-12-03T15:26:00.560Z,46.17
2022-12-03T15:29:03.321Z,41.17
2022-12-03T15:32:05.982Z,43.05
2022-12-03T15:35:08.970Z,41.60
2022-12-03T15:38:12.182Z,48.58
2022-12-03T15:41:21.457Z,39.58
2022-12-03T15:44:24.228Z,44.33
2022-12-03T15:47:27.319Z,38.72
2022-12-03T15:50:30.185Z,43.87
2022-12-03T15:53:32.974Z,51.05
2022-12-03T15:56:37.707Z,59.55
2022-12-03T15:59:41.106Z,52.90
2022-12-03T16:02:49.003Z,61.83
2022-12-03T16:05:55.255Z,61.65
2022-12-03T16:08:58.012Z,47.25
2022-12-03T16:12:01.091Z,54.05
2022-12-03T16:15:04.326Z,46.80
2022-12-03T16:18:07.330Z,39.47
2022-12-03T16:21:11.943Z,45.97
2022-12-03T16:24:14.786Z,42.28
2022-12-03T16:27:19.578Z,46.50
2022-12-03T16:30:24.829Z,46.93
2022-12-03T16:33:28.214Z,46.90
2022-12-03T16:36:31.087Z,44.00
2022-12-03T16:39:33.579Z,46.22
2022-12-03T16:42:37.391Z,49.08
2022-12-03T16:45:59.250Z,26.00
2022-12-03T16:49:03.770Z,48.30
2022-12-03T16:52:06.359Z,46.30
2022-12-03T16:55:09.616Z,53.65
2022-12-03T16:58:12.757Z,47.83
2022-12-03T17:01:15.857Z,48.80
2022-12-03T17:04:18.403Z,22.80
2022-12-03T17:07:21.297Z,42.97
2022-12-03T17:10:24.129Z,29.60
2022-12-03T17:13:27.231Z,44.95
2022-12-03T17:16:29.802Z,51.97
2022-12-03T17:19:32.772Z,50.58
2022-12-03T17:22:35.518Z,38.63
2022-12-03T17:25:38.338Z,32.38
2022-12-03T17:28:40.949Z,34.55
2022-12-03T17:31:43.785Z,42.40
2022-12-03T17:34:46.475Z,46.35
2022-12-03T17:37:49.276Z,40.50
2022-12-03T17:40:53.258Z,34.05
2022-12-03T17:43:56.148Z,30.48
2022-12-03T17:46:59.005Z,23.97
2022-12-03T17:50:02.019Z,39.95
2022-12-03T17:53:05.648Z,32.95
2022-12-03T17:56:09.740Z,31.70
2022-12-03T17:59:13.344Z,40.53
2022-12-03T18:02:16.301Z,33.50
2022-12-03T18:05:19.150Z,52.60
2022-12-03T18:08:21.937Z,48.22
2022-12-03T18:11:25.034Z,37.70
2022-12-03T18:14:27.596Z,36.55
2022-12-03T18:17:30.626Z,43.57
2022-12-03T18:20:33.277Z,29.83
2022-12-03T18:23:36.206Z,43.95
2022-12-03T18:26:38.784Z,50.25
2022-12-03T18:29:41.555Z,35.92
2022-12-03T18:32:44.647Z,35.87
2022-12-03T18:35:47.652Z,33.67
2022-12-03T18:38:52.180Z,38.92
2022-12-03T18:41:55.087Z,43.00
2022-12-03T18:44:59.048Z,54.97
2022-12-03T18:48:01.985Z,47.20
2022-12-03T18:51:13.507Z,43.63
2022-12-03T18:54:17.351Z,41.53
2022-12-03T18:57:20.609Z,39.00
2022-12-03T19:00:23.441Z,46.65
2022-12-03T19:03:26.526Z,33.83
2022-12-03T19:06:30.597Z,37.75
2022-12-03T19:09:33.519Z,40.08
2022-12-03T19:12:37.480Z,43.80
2022-12-03T19:15:40.488Z,42.03
2022-12-03T19:18:43.759Z,43.80
2022-12-03T19:21:46.595Z,45.85
2022-12-03T19:24:50.001Z,49.90
2022-12-03T19:27:55.188Z,47.05
2022-12-03T19:31:10.768Z,51.72
2022-12-03T19:34:13.625Z,46.40
2022-12-03T19:37:16.820Z,53.03
2022-12-03T19:40:19.686Z,53.85
2022-12-03T19:43:23.456Z,48.45
2022-12-03T19:46:31.398Z,44.90
2022-12-03T19:49:34.406Z,45.10
2022-12-03T19:52:37.332Z,47.65
2022-12-03T19:55:40.360Z,48.08
2022-12-03T19:58:45.416Z,51.80
2022-12-03T20:01:48.662Z,44.38
2022-12-03T20:04:51.811Z,45.27
2022-12-03T20:07:54.698Z,44.63
2022-12-03T20:11:10.882Z,43.63
2022-12-03T20:14:15.797Z,42.88
2022-12-03T20:17:18.854Z,48.15
2022-12-03T20:20:21.533Z,45.97
2022-12-03T20:23:24.235Z,30.40
2022-12-03T20:26:27.706Z,21.85
2022-12-03T20:29:30.752Z,37.20
2022-12-03T20:32:36.577Z,35.53
2022-12-03T20:35:41.293Z,25.53
2022-12-03T20:38:44.915Z,37.85
2022-12-03T20:41:48.033Z,39.45
2022-12-03T20:44:54.009Z,37.10
2022-12-03T20:47:56.976Z,35.53
2022-12-03T20:50:59.740Z,36.83
2022-12-03T20:54:03.055Z,39.92
2022-12-03T20:57:06.302Z,39.42
2022-12-03T21:00:09.419Z,35.97
2022-12-03T21:03:12.225Z,34.40
2022-12-03T21:06:15.972Z,33.93
2022-12-03T21:09:18.769Z,34.67
2022-12-03T21:12:21.635Z,41.55
2022-12-03T21:15:24.355Z,36.53
2022-12-03T21:18:27.231Z,33.03
2022-12-03T21:21:32.652Z,43.00
2022-12-03T21:24:35.721Z,24.42
2022-12-03T21:27:38.299Z,37.83
2022-12-03T21:30:41.842Z,35.80
2022-12-03T21:33:44.545Z,28.23
2022-12-03T21:36:47.394Z,23.60
2022-12-03T21:39:50.008Z,36.40
2022-12-03T21:42:52.944Z,38.35
2022-12-03T21:45:55.724Z,33.10
2022-12-03T21:49:00.118Z,38.75
2022-12-03T21:52:02.836Z,35.00
2022-12-03T21:55:06.497Z,37.13
2022-12-03T21:58:09.431Z,23.67
2022-12-03T22:01:17.979Z,37.03
2022-12-03T22:04:21.105Z,38.30
2022-12-03T22:07:23.613Z,34.97
2022-12-03T22:10:27.788Z,35.67
2022-12-03T22:13:30.365Z,39.35
2022-12-03T22:16:33.082Z,33.78
2022-12-03T22:19:35.506Z,39.05
2022-12-03T22:22:38.210Z,34.60
2022-12-03T22:25:40.672Z,32.97
2022-12-03T22:28:44.541Z,34.80
2022-12-03T22:31:47.323Z,36.22
2022-12-03T22:34:50.440Z,37.35
2022-12-03T22:37:53.004Z,40.23
2022-12-03T22:40:55.780Z,35.72
2022-12-03T22:43:58.239Z,37.03
2022-12-03T22:47:00.943Z,40.17
2022-12-03T22:50:03.504Z,37.47
2022-12-03T22:53:06.226Z,35.40
2022-12-03T22:56:08.730Z,37.08
2022-12-03T22:59:11.676Z,41.58
2022-12-03T23:02:14.679Z,29.75
2022-12-03T23:05:17.537Z,35.05
2022-12-03T23:08:20.729Z,33.57
2022-12-03T23:11:23.961Z,25.52
2022-12-03T23:14:26.551Z,37.38
2022-12-03T23:17:29.419Z,38.10
2022-12-03T23:20:31.913Z,40.72
2022-12-03T23:23:34.669Z,33.10
2022-12-03T23:26:38.279Z,34.70
2022-12-03T23:29:40.996Z,36.63
2022-12-03T23:32:44.556Z,25.05
2022-12-03T23:35:47.405Z,33.38
2022-12-03T23:38:50.155Z,15.73
2022-12-03T23:41:53.875Z,30.67
2022-12-03T23:44:56.369Z,35.70
2022-12-03T23:47:59.691Z,24.80
2022-12-03T23:51:10.034Z,27.55
2022-12-03T23:54:12.847Z,34.23
2022-12-03T23:57:16.249Z,28.00
